sensor_id;sensor_type;location;lat;lon;timestamp;pressure;altitude;pressure_sealevel;temperature;humidity
13367;BME280;6752;52.612;13.630;2023-03-03T00:03:41;101697.77;;;-0.16;100.00
13367;BME280;6752;52.612;13.630;2023-03-03T00:08:43;101703.79;;;-0.13;100.00
13367;BME280;6752;52.612;13.630;2023-03-03T00:13:50;101700.59;;;-0.07;100.00
13367;BME280;6752;52.612;13.630;2023-03-03T00:18:48;101676.53;;;-0.08;100.00
13367;BME280;6752;52.612;13.630;2023-03-03T00:23:51;101678.93;;;0.17;100.00
13367;BME280;6752;52.612;13.630;2023-03-03T00:28:53;101678.31;;;0.09;100.00
13367;BME280;6752;52.612;13.630;2023-03-03T00:33:55;101677.78;;;-0.01;100.00
13367;BME280;6752;52.612;13.630;2023-03-03T00:39:16;101667.55;;;0.04;100.00
13367;BME280;6752;52.612;13.630;2023-03-03T00:49:29;101672.56;;;-0.24;100.00
13367;BME280;6752;52.612;13.630;2023-03-03T00:54:31;101663.73;;;-0.04;100.00
13367;BME280;6752;52.612;13.630;2023-03-03T00:59:33;101637.51;;;-0.11;100.00
13367;BME280;6752;52.612;13.630;2023-03-03T01:04:36;101657.13;;;-0.10;100.00
13367;BME280;6752;52.612;13.630;2023-03-03T01:09:38;101661.83;;;-0.13;100.00
13367;BME280;6752;52.612;13.630;2023-03-03T01:14:40;101650.33;;;-0.04;100.00
13367;BME280;6752;52.612;13.630;2023-03-03T01:19:43;101652.02;;;-0.13;100.00
13367;BME280;6752;52.612;13.630;2023-03-03T01:24:46;101641.47;;;-0.10;100.00
13367;BME280;6752;52.612;13.630;2023-03-03T01:29:48;101635.64;;;-0.05;100.00
13367;BME280;6752;52.612;13.630;2023-03-03T01:34:52;101632.12;;;-0.05;100.00
13367;BME280;6752;52.612;13.630;2023-03-03T01:39:53;101619.14;;;-0.05;100.00
13367;BME280;6752;52.612;13.630;2023-03-03T01:50:26;101616.83;;;-0.14;100.00
13367;BME280;6752;52.612;13.630;2023-03-03T01:55:22;101624.44;;;-0.15;100.00
13367;BME280;6752;52.612;13.630;2023-03-03T02:00:24;101633.36;;;-0.20;100.00
13367;BME280;6752;52.612;13.630;2023-03-03T02:05:26;101635.38;;;-0.23;100.00
13367;BME280;6752;52.612;13.630;2023-03-03T02:10:28;101628.75;;;-0.13;100.00
13367;BME280;6752;52.612;13.630;2023-03-03T02:15:32;101646.22;;;-0.30;100.00
13367;BME280;6752;52.612;13.630;2023-03-03T02:20:42;101636.17;;;-0.21;100.00
13367;BME280;6752;52.612;13.630;2023-03-03T02:26:29;101648.22;;;-0.27;100.00
13367;BME280;6752;52.612;13.630;2023-03-03T02:30:44;101644.43;;;-0.24;100.00
13367;BME280;6752;52.612;13.630;2023-03-03T02:35:46;101639.47;;;-0.23;100.00
13367;BME280;6752;52.612;13.630;2023-03-03T02:46:09;101639.34;;;-0.11;100.00
13367;BME280;6752;52.612;13.630;2023-03-03T02:51:11;101637.09;;;-0.11;100.00
13367;BME280;6752;52.612;13.630;2023-03-03T02:56:14;101644.08;;;-0.20;100.00
13367;BME280;6752;52.612;13.630;2023-03-03T03:01:16;101641.61;;;-0.33;100.00
13367;BME280;6752;52.612;13.630;2023-03-03T03:06:19;101644.50;;;-0.25;100.00
13367;BME280;6752;52.612;13.630;2023-03-03T03:11:21;101660.83;;;-0.28;100.00
13367;BME280;6752;52.612;13.630;2023-03-03T03:16:23;101677.44;;;-0.18;100.00
13367;BME280;6752;52.612;13.630;2023-03-03T03:21:25;101681.59;;;-0.20;100.00
13367;BME280;6752;52.612;13.630;2023-03-03T03:26:27;101678.31;;;-0.23;100.00
13367;BME280;6752;52.612;13.630;2023-03-03T03:31:30;101680.39;;;-0.33;100.00
13367;BME280;6752;52.612;13.630;2023-03-03T03:36:32;101683.07;;;-0.33;100.00
13367;BME280;6752;52.612;13.630;2023-03-03T03:41:34;101657.55;;;-0.32;100.00
13367;BME280;6752;52.612;13.630;2023-03-03T03:46:37;101661.41;;;-0.35;100.00
13367;BME280;6752;52.612;13.630;2023-03-03T03:51:39;101649.55;;;-0.37;100.00
13367;BME280;6752;52.612;13.630;2023-03-03T03:56:42;101648.05;;;-0.52;100.00
13367;BME280;6752;52.612;13.630;2023-03-03T04:01:44;101645.80;;;-0.46;100.00
13367;BME280;6752;52.612;13.630;2023-03-03T04:06:46;101639.19;;;-0.58;100.00
13367;BME280;6752;52.612;13.630;2023-03-03T04:11:49;101639.03;;;-0.51;100.00
13367;BME280;6752;52.612;13.630;2023-03-03T04:16:51;101640.50;;;-0.52;100.00
13367;BME280;6752;52.612;13.630;2023-03-03T04:22:12;101645.97;;;-0.43;100.00
13367;BME280;6752;52.612;13.630;2023-03-03T04:27:14;101635.00;;;-0.61;100.00
13367;BME280;6752;52.612;13.630;2023-03-03T04:32:17;101630.02;;;-0.50;100.00
13367;BME280;6752;52.612;13.630;2023-03-03T04:37:19;101627.75;;;-0.60;100.00
13367;BME280;6752;52.612;13.630;2023-03-03T04:42:22;101632.23;;;-0.55;100.00
13367;BME280;6752;52.612;13.630;2023-03-03T04:47:24;101637.45;;;-0.75;100.00
13367;BME280;6752;52.612;13.630;2023-03-03T04:52:26;101630.84;;;-0.87;100.00
13367;BME280;6752;52.612;13.630;2023-03-03T04:57:29;101632.48;;;-0.96;100.00
13367;BME280;6752;52.612;13.630;2023-03-03T05:02:31;101623.85;;;-1.00;100.00
13367;BME280;6752;52.612;13.630;2023-03-03T05:07:35;101612.91;;;-1.02;100.00
13367;BME280;6752;52.612;13.630;2023-03-03T05:12:37;101626.36;;;-1.09;100.00
13367;BME280;6752;52.612;13.630;2023-03-03T05:17:42;101627.20;;;-1.03;100.00
13367;BME280;6752;52.612;13.630;2023-03-03T05:22:45;101634.02;;;-1.27;100.00
13367;BME280;6752;52.612;13.630;2023-03-03T05:27:47;101643.92;;;-1.22;100.00
13367;BME280;6752;52.612;13.630;2023-03-03T05:32:50;101649.70;;;-1.22;100.00
13367;BME280;6752;52.612;13.630;2023-03-03T05:37:52;101655.20;;;-1.18;100.00
13367;BME280;6752;52.612;13.630;2023-03-03T05:42:54;101664.05;;;-1.23;100.00
13367;BME280;6752;52.612;13.630;2023-03-03T05:47:57;101662.23;;;-1.28;100.00
13367;BME280;6752;52.612;13.630;2023-03-03T05:52:59;101659.80;;;-1.37;100.00
13367;BME280;6752;52.612;13.630;2023-03-03T05:58:02;101654.69;;;-1.34;100.00
13367;BME280;6752;52.612;13.630;2023-03-03T06:03:04;101665.08;;;-1.30;100.00
13367;BME280;6752;52.612;13.630;2023-03-03T06:08:06;101660.46;;;-1.23;100.00
13367;BME280;6752;52.612;13.630;2023-03-03T06:13:09;101659.80;;;-1.26;100.00
13367;BME280;6752;52.612;13.630;2023-03-03T06:18:11;101661.25;;;-1.21;100.00
13367;BME280;6752;52.612;13.630;2023-03-03T06:23:13;101667.33;;;-1.19;100.00
13367;BME280;6752;52.612;13.630;2023-03-03T06:28:16;101673.17;;;-1.26;100.00
13367;BME280;6752;52.612;13.630;2023-03-03T06:33:18;101676.45;;;-1.28;100.00
13367;BME280;6752;52.612;13.630;2023-03-03T06:38:21;101670.25;;;-1.22;100.00
13367;BME280;6752;52.612;13.630;2023-03-03T06:43:23;101684.98;;;-1.11;100.00
13367;BME280;6752;52.612;13.630;2023-03-03T06:48:25;101696.33;;;-1.20;100.00
13367;BME280;6752;52.612;13.630;2023-03-03T06:53:29;101708.52;;;-1.10;100.00
13367;BME280;6752;52.612;13.630;2023-03-03T06:58:30;101712.87;;;-1.31;100.00
13367;BME280;6752;52.612;13.630;2023-03-03T07:03:33;101709.98;;;-1.12;100.00
13367;BME280;6752;52.612;13.630;2023-03-03T07:08:35;101718.70;;;-1.21;100.00
13367;BME280;6752;52.612;13.630;2023-03-03T07:13:38;101710.71;;;-1.10;100.00
13367;BME280;6752;52.612;13.630;2023-03-03T07:23:57;101732.30;;;-1.17;100.00
13367;BME280;6752;52.612;13.630;2023-03-03T07:29:00;101723.11;;;-1.09;100.00
13367;BME280;6752;52.612;13.630;2023-03-03T07:34:12;101734.91;;;-1.00;100.00
13367;BME280;6752;52.612;13.630;2023-03-03T07:44:23;101731.63;;;-1.03;100.00
13367;BME280;6752;52.612;13.630;2023-03-03T07:49:34;101745.64;;;-0.89;100.00
13367;BME280;6752;52.612;13.630;2023-03-03T07:54:37;101739.38;;;-0.83;100.00
13367;BME280;6752;52.612;13.630;2023-03-03T07:59:40;101734.87;;;-0.82;100.00
13367;BME280;6752;52.612;13.630;2023-03-03T08:04:41;101738.05;;;-0.66;100.00
13367;BME280;6752;52.612;13.630;2023-03-03T08:09:46;101737.67;;;-0.62;100.00
13367;BME280;6752;52.612;13.630;2023-03-03T08:14:48;101729.38;;;-0.42;100.00
13367;BME280;6752;52.612;13.630;2023-03-03T08:19:50;101726.70;;;-0.58;100.00
13367;BME280;6752;52.612;13.630;2023-03-03T08:24:52;101729.02;;;-0.43;100.00
13367;BME280;6752;52.612;13.630;2023-03-03T08:29:55;101727.77;;;-0.33;100.00
13367;BME280;6752;52.612;13.630;2023-03-03T08:34:57;101732.66;;;-0.49;100.00
13367;BME280;6752;52.612;13.630;2023-03-03T08:40:00;101725.83;;;-0.37;100.00
13367;BME280;6752;52.612;13.630;2023-03-03T08:45:02;101729.57;;;-0.17;100.00
13367;BME280;6752;52.612;13.630;2023-03-03T08:50:05;101725.55;;;-0.17;100.00
13367;BME280;6752;52.612;13.630;2023-03-03T08:55:07;101723.17;;;-0.26;100.00
13367;BME280;6752;52.612;13.630;2023-03-03T09:00:10;101716.23;;;-0.18;100.00
13367;BME280;6752;52.612;13.630;2023-03-03T09:05:12;101721.84;;;-0.21;100.00
13367;BME280;6752;52.612;13.630;2023-03-03T09:10:16;101721.06;;;-0.22;100.00
13367;BME280;6752;52.612;13.630;2023-03-03T09:15:35;101731.52;;;-0.03;100.00
13367;BME280;6752;52.612;13.630;2023-03-03T09:20:37;101710.16;;;0.28;100.00
13367;BME280;6752;52.612;13.630;2023-03-03T09:25:39;101713.98;;;0.31;100.00
13367;BME280;6752;52.612;13.630;2023-03-03T09:30:43;101701.58;;;0.45;100.00
13367;BME280;6752;52.612;13.630;2023-03-03T09:35:44;101705.69;;;0.55;100.00
13367;BME280;6752;52.612;13.630;2023-03-03T09:41:15;101710.77;;;0.37;100.00
13367;BME280;6752;52.612;13.630;2023-03-03T09:51:59;101687.67;;;0.66;100.00
13367;BME280;6752;52.612;13.630;2023-03-03T09:56:40;101691.70;;;0.77;100.00
13367;BME280;6752;52.612;13.630;2023-03-03T10:18:01;101688.91;;;1.14;100.00
13367;BME280;6752;52.612;13.630;2023-03-03T10:23:18;101692.03;;;0.99;100.00
13367;BME280;6752;52.612;13.630;2023-03-03T10:33:45;101699.00;;;1.21;100.00
13367;BME280;6752;52.612;13.630;2023-03-03T10:55:34;101697.61;;;1.52;100.00
13367;BME280;6752;52.612;13.630;2023-03-03T10:59:56;101694.86;;;1.62;100.00
13367;BME280;6752;52.612;13.630;2023-03-03T11:10:23;101689.62;;;1.65;100.00
13367;BME280;6752;52.612;13.630;2023-03-03T11:20:47;101690.58;;;1.70;100.00
13367;BME280;6752;52.612;13.630;2023-03-03T11:31:31;101686.86;;;2.01;100.00
13367;BME280;6752;52.612;13.630;2023-03-03T11:36:34;101679.09;;;1.93;100.00
13367;BME280;6752;52.612;13.630;2023-03-03T11:41:38;101671.58;;;2.01;100.00
13367;BME280;6752;52.612;13.630;2023-03-03T11:46:55;101668.53;;;2.24;100.00
13367;BME280;6752;52.612;13.630;2023-03-03T11:52:15;101667.81;;;2.27;100.00
13367;BME280;6752;52.612;13.630;2023-03-03T12:08:06;101638.98;;;2.33;100.00
13367;BME280;6752;52.612;13.630;2023-03-03T12:13:13;101640.08;;;2.22;100.00
13367;BME280;6752;52.612;13.630;2023-03-03T12:23:27;101632.11;;;2.44;100.00
13367;BME280;6752;52.612;13.630;2023-03-03T12:28:33;101620.39;;;2.78;100.00
13367;BME280;6752;52.612;13.630;2023-03-03T12:34:04;101617.95;;;2.42;100.00
13367;BME280;6752;52.612;13.630;2023-03-03T12:44:33;101612.52;;;2.67;100.00
13367;BME280;6752;52.612;13.630;2023-03-03T12:49:44;101604.98;;;2.70;100.00
13367;BME280;6752;52.612;13.630;2023-03-03T13:05:01;101597.83;;;2.88;100.00
13367;BME280;6752;52.612;13.630;2023-03-03T13:15:34;101579.77;;;2.99;100.00
13367;BME280;6752;52.612;13.630;2023-03-03T13:20:50;101574.89;;;3.07;100.00
13367;BME280;6752;52.612;13.630;2023-03-03T13:25:58;101587.30;;;2.95;100.00
13367;BME280;6752;52.612;13.630;2023-03-03T13:31:05;101579.20;;;3.00;100.00
13367;BME280;6752;52.612;13.630;2023-03-03T13:36:12;101564.58;;;3.02;100.00
13367;BME280;6752;52.612;13.630;2023-03-03T13:41:29;101568.50;;;3.13;100.00
13367;BME280;6752;52.612;13.630;2023-03-03T13:52:09;101559.62;;;3.25;100.00
13367;BME280;6752;52.612;13.630;2023-03-03T14:03:00;101564.54;;;3.35;100.00
13367;BME280;6752;52.612;13.630;2023-03-03T14:08:09;101559.50;;;3.22;100.00
13367;BME280;6752;52.612;13.630;2023-03-03T14:13:28;101553.27;;;3.13;100.00
13367;BME280;6752;52.612;13.630;2023-03-03T14:18:35;101540.87;;;2.97;100.00
13367;BME280;6752;52.612;13.630;2023-03-03T14:24:19;101527.91;;;3.05;100.00
13367;BME280;6752;52.612;13.630;2023-03-03T14:29:02;101520.39;;;3.27;100.00
13367;BME280;6752;52.612;13.630;2023-03-03T14:34:08;101517.83;;;3.48;100.00
13367;BME280;6752;52.612;13.630;2023-03-03T14:39:04;101525.61;;;3.42;100.00
13367;BME280;6752;52.612;13.630;2023-03-03T14:44:30;101514.78;;;3.47;100.00
13367;BME280;6752;52.612;13.630;2023-03-03T14:49:32;101492.56;;;3.31;100.00
13367;BME280;6752;52.612;13.630;2023-03-03T14:54:36;101495.95;;;3.24;100.00
13367;BME280;6752;52.612;13.630;2023-03-03T14:59:35;101485.39;;;3.36;100.00
13367;BME280;6752;52.612;13.630;2023-03-03T15:04:38;101486.48;;;3.65;100.00
13367;BME280;6752;52.612;13.630;2023-03-03T15:09:47;101485.92;;;3.70;100.00
13367;BME280;6752;52.612;13.630;2023-03-03T15:14:47;101488.41;;;3.76;100.00
13367;BME280;6752;52.612;13.630;2023-03-03T15:19:58;101491.92;;;3.60;100.00
13367;BME280;6752;52.612;13.630;2023-03-03T15:25:11;101478.05;;;3.64;100.00
13367;BME280;6752;52.612;13.630;2023-03-03T15:30:37;101473.12;;;3.50;100.00
13367;BME280;6752;52.612;13.630;2023-03-03T15:35:52;101471.09;;;3.57;100.00
13367;BME280;6752;52.612;13.630;2023-03-03T15:41:03;101463.10;;;3.51;100.00
13367;BME280;6752;52.612;13.630;2023-03-03T15:46:08;101457.45;;;3.50;100.00
13367;BME280;6752;52.612;13.630;2023-03-03T15:51:33;101458.34;;;3.45;100.00
13367;BME280;6752;52.612;13.630;2023-03-03T15:56:51;101455.22;;;3.45;100.00
13367;BME280;6752;52.612;13.630;2023-03-03T16:07:16;101452.69;;;3.44;100.00
13367;BME280;6752;52.612;13.630;2023-03-03T16:12:24;101436.99;;;3.52;100.00
13367;BME280;6752;52.612;13.630;2023-03-03T16:17:46;101439.16;;;3.48;100.00
13367;BME280;6752;52.612;13.630;2023-03-03T16:23:00;101438.24;;;3.58;100.00
13367;BME280;6752;52.612;13.630;2023-03-03T16:28:45;101430.14;;;3.49;100.00
13367;BME280;6752;52.612;13.630;2023-03-03T16:33:22;101435.64;;;3.52;100.00
13367;BME280;6752;52.612;13.630;2023-03-03T16:38:29;101436.63;;;3.47;100.00
13367;BME280;6752;52.612;13.630;2023-03-03T16:59:41;101432.86;;;3.09;100.00
13367;BME280;6752;52.612;13.630;2023-03-03T17:15:28;101437.39;;;2.77;100.00
13367;BME280;6752;52.612;13.630;2023-03-03T17:25:45;101446.04;;;2.76;100.00
13367;BME280;6752;52.612;13.630;2023-03-03T17:31:15;101436.42;;;2.64;100.00
13367;BME280;6752;52.612;13.630;2023-03-03T17:41:33;101441.07;;;2.67;100.00
13367;BME280;6752;52.612;13.630;2023-03-03T17:47:00;101432.50;;;2.76;100.00
13367;BME280;6752;52.612;13.630;2023-03-03T18:18:55;101412.59;;;2.96;100.00
13367;BME280;6752;52.612;13.630;2023-03-03T18:24:12;101402.30;;;2.91;100.00
13367;BME280;6752;52.612;13.630;2023-03-03T18:29:18;101400.97;;;3.04;100.00
13367;BME280;6752;52.612;13.630;2023-03-03T18:34:37;101401.95;;;3.08;100.00
13367;BME280;6752;52.612;13.630;2023-03-03T18:55:49;101386.36;;;3.38;100.00
13367;BME280;6752;52.612;13.630;2023-03-03T19:00:51;101375.03;;;3.43;100.00
13367;BME280;6752;52.612;13.630;2023-03-03T19:05:53;101369.66;;;3.47;100.00
13367;BME280;6752;52.612;13.630;2023-03-03T19:10:56;101366.08;;;3.38;100.00
13367;BME280;6752;52.612;13.630;2023-03-03T19:16:00;101373.18;;;3.44;100.00
13367;BME280;6752;52.612;13.630;2023-03-03T19:21:03;101358.09;;;3.42;100.00
13367;BME280;6752;52.612;13.630;2023-03-03T19:31:52;101347.19;;;3.34;100.00
13367;BME280;6752;52.612;13.630;2023-03-03T19:36:56;101347.45;;;3.36;100.00
13367;BME280;6752;52.612;13.630;2023-03-03T19:47:15;101355.48;;;3.41;100.00
13367;BME280;6752;52.612;13.630;2023-03-03T19:52:16;101351.62;;;3.44;100.00
13367;BME280;6752;52.612;13.630;2023-03-03T20:07:33;101343.70;;;3.55;100.00
13367;BME280;6752;52.612;13.630;2023-03-03T20:12:42;101334.87;;;3.58;100.00
13367;BME280;6752;52.612;13.630;2023-03-03T20:17:59;101334.13;;;3.61;100.00
13367;BME280;6752;52.612;13.630;2023-03-03T20:23:05;101332.37;;;3.64;100.00
13367;BME280;6752;52.612;13.630;2023-03-03T20:28:44;101327.91;;;3.64;100.00
13367;BME280;6752;52.612;13.630;2023-03-03T20:39:20;101322.44;;;3.65;100.00
13367;BME280;6752;52.612;13.630;2023-03-03T20:44:53;101326.13;;;3.60;100.00
13367;BME280;6752;52.612;13.630;2023-03-03T20:50:08;101327.09;;;3.42;100.00
13367;BME280;6752;52.612;13.630;2023-03-03T20:55:14;101325.20;;;3.34;100.00
13367;BME280;6752;52.612;13.630;2023-03-03T21:05:57;101313.77;;;3.36;100.00
13367;BME280;6752;52.612;13.630;2023-03-03T21:10:58;101314.17;;;3.32;100.00
13367;BME280;6752;52.612;13.630;2023-03-03T21:16:04;101311.07;;;3.36;100.00
13367;BME280;6752;52.612;13.630;2023-03-03T21:21:03;101313.74;;;3.32;100.00
13367;BME280;6752;52.612;13.630;2023-03-03T21:26:05;101313.66;;;3.33;100.00
13367;BME280;6752;52.612;13.630;2023-03-03T21:31:14;101303.14;;;3.35;100.00
13367;BME280;6752;52.612;13.630;2023-03-03T21:36:23;101287.82;;;3.35;100.00
13367;BME280;6752;52.612;13.630;2023-03-03T21:41:25;101289.77;;;3.38;100.00
13367;BME280;6752;52.612;13.630;2023-03-03T21:46:27;101278.67;;;3.41;100.00
13367;BME280;6752;52.612;13.630;2023-03-03T21:51:30;101269.38;;;3.35;100.00
13367;BME280;6752;52.612;13.630;2023-03-03T21:56:32;101256.07;;;3.34;100.00
13367;BME280;6752;52.612;13.630;2023-03-03T22:01:35;101249.84;;;3.33;100.00
13367;BME280;6752;52.612;13.630;2023-03-03T22:06:37;101249.27;;;3.26;100.00
13367;BME280;6752;52.612;13.630;2023-03-03T22:11:39;101246.89;;;3.23;100.00
13367;BME280;6752;52.612;13.630;2023-03-03T22:16:42;101248.66;;;3.23;100.00
13367;BME280;6752;52.612;13.630;2023-03-03T22:21:44;101247.14;;;3.20;100.00
13367;BME280;6752;52.612;13.630;2023-03-03T22:26:47;101247.22;;;3.20;100.00
13367;BME280;6752;52.612;13.630;2023-03-03T22:31:50;101241.55;;;3.14;100.00
13367;BME280;6752;52.612;13.630;2023-03-03T22:36:52;101230.67;;;3.11;100.00
13367;BME280;6752;52.612;13.630;2023-03-03T22:41:55;101221.48;;;3.08;100.00
13367;BME280;6752;52.612;13.630;2023-03-03T22:46:57;101211.00;;;3.05;100.00
13367;BME280;6752;52.612;13.630;2023-03-03T22:51:59;101205.78;;;3.04;100.00
13367;BME280;6752;52.612;13.630;2023-03-03T22:57:02;101187.41;;;2.99;100.00
13367;BME280;6752;52.612;13.630;2023-03-03T23:02:04;101174.46;;;3.03;100.00
13367;BME280;6752;52.612;13.630;2023-03-03T23:07:06;101166.97;;;3.01;100.00
13367;BME280;6752;52.612;13.630;2023-03-03T23:12:09;101142.05;;;2.99;100.00
13367;BME280;6752;52.612;13.630;2023-03-03T23:17:11;101140.89;;;2.85;100.00
13367;BME280;6752;52.612;13.630;2023-03-03T23:22:13;101141.59;;;2.78;100.00
13367;BME280;6752;52.612;13.630;2023-03-03T23:27:15;101133.47;;;2.70;100.00
13367;BME280;6752;52.612;13.630;2023-03-03T23:32:17;101162.82;;;2.59;100.00
13367;BME280;6752;52.612;13.630;2023-03-03T23:37:20;101150.02;;;2.57;100.00
13367;BME280;6752;52.612;13.630;2023-03-03T23:42:22;101155.22;;;2.54;100.00
13367;BME280;6752;52.612;13.630;2023-03-03T23:47:24;101157.73;;;2.52;100.00
13367;BME280;6752;52.612;13.630;2023-03-03T23:52:27;101144.80;;;2.56;100.00
13367;BME280;6752;52.612;13.630;2023-03-03T23:57:29;101136.13;;;2.53;100.00
